sensor_id;sensor_type;location;lat;lon;timestamp;P1;durP1;ratioP1;P2;durP2;ratioP2
147;SDS011;142;50.652;12.216;2022-10-17T00:02:24;0.20;;;0.10;;
147;SDS011;142;50.652;12.216;2022-10-17T00:04:52;0.33;;;0.23;;
147;SDS011;142;50.652;12.216;2022-10-17T00:07:20;0.30;;;0.20;;
147;SDS011;142;50.652;12.216;2022-10-17T00:09:47;0.20;;;0.10;;
147;SDS011;142;50.652;12.216;2022-10-17T00:12:14;0.30;;;0.20;;
147;SDS011;142;50.652;12.216;2022-10-17T00:14:42;0.30;;;0.20;;
147;SDS011;142;50.652;12.216;2022-10-17T00:17:09;0.20;;;0.10;;
147;SDS011;142;50.652;12.216;2022-10-17T00:19:35;0.20;;;0.10;;
147;SDS011;142;50.652;12.216;2022-10-17T00:22:03;0.40;;;0.30;;
147;SDS011;142;50.652;12.216;2022-10-17T00:24:31;0.27;;;0.17;;
147;SDS011;142;50.652;12.216;2022-10-17T00:26:58;0.13;;;0.07;;
147;SDS011;142;50.652;12.216;2022-10-17T00:29:25;0.30;;;0.20;;
147;SDS011;142;50.652;12.216;2022-10-17T00:31:53;0.30;;;0.20;;
147;SDS011;142;50.652;12.216;2022-10-17T00:34:21;0.20;;;0.10;;
147;SDS011;142;50.652;12.216;2022-10-17T00:36:48;0.20;;;0.10;;
147;SDS011;142;50.652;12.216;2022-10-17T00:39:15;0.30;;;0.20;;
147;SDS011;142;50.652;12.216;2022-10-17T00:41:43;0.20;;;0.10;;
147;SDS011;142;50.652;12.216;2022-10-17T00:47:12;0.30;;;0.20;;
147;SDS011;142;50.652;12.216;2022-10-17T00:49:43;0.30;;;0.20;;
147;SDS011;142;50.652;12.216;2022-10-17T00:52:12;0.20;;;0.10;;
147;SDS011;142;50.652;12.216;2022-10-17T00:54:44;0.30;;;0.20;;
147;SDS011;142;50.652;12.216;2022-10-17T00:57:16;0.20;;;0.10;;
147;SDS011;142;50.652;12.216;2022-10-17T00:59:44;0.07;;;0.03;;
147;SDS011;142;50.652;12.216;2022-10-17T01:02:16;0.30;;;0.20;;
147;SDS011;142;50.652;12.216;2022-10-17T01:04:46;0.20;;;0.10;;
147;SDS011;142;50.652;12.216;2022-10-17T01:07:15;0.20;;;0.10;;
147;SDS011;142;50.652;12.216;2022-10-17T01:09:43;0.20;;;0.10;;
147;SDS011;142;50.652;12.216;2022-10-17T01:12:14;0.23;;;0.13;;
147;SDS011;142;50.652;12.216;2022-10-17T01:14:55;0.30;;;0.20;;
147;SDS011;142;50.652;12.216;2022-10-17T01:17:32;0.20;;;0.10;;
147;SDS011;142;50.652;12.216;2022-10-17T01:20:13;0.30;;;0.20;;
147;SDS011;142;50.652;12.216;2022-10-17T01:22:59;0.30;;;0.20;;
147;SDS011;142;50.652;12.216;2022-10-17T01:25:44;0.30;;;0.20;;
147;SDS011;142;50.652;12.216;2022-10-17T01:28:24;0.20;;;0.10;;
147;SDS011;142;50.652;12.216;2022-10-17T01:31:07;0.30;;;0.20;;
147;SDS011;142;50.652;12.216;2022-10-17T01:33:43;0.20;;;0.10;;
147;SDS011;142;50.652;12.216;2022-10-17T01:36:18;0.20;;;0.10;;
147;SDS011;142;50.652;12.216;2022-10-17T01:38:56;0.00;;;0.00;;
147;SDS011;142;50.652;12.216;2022-10-17T01:41:29;0.27;;;0.17;;
147;SDS011;142;50.652;12.216;2022-10-17T01:44:04;0.20;;;0.10;;
147;SDS011;142;50.652;12.216;2022-10-17T01:46:39;0.00;;;0.00;;
147;SDS011;142;50.652;12.216;2022-10-17T01:49:09;0.20;;;0.10;;
147;SDS011;142;50.652;12.216;2022-10-17T01:51:39;0.23;;;0.13;;
147;SDS011;142;50.652;12.216;2022-10-17T01:54:10;0.20;;;0.10;;
147;SDS011;142;50.652;12.216;2022-10-17T01:56:42;0.20;;;0.10;;
147;SDS011;142;50.652;12.216;2022-10-17T01:59:12;0.20;;;0.10;;
147;SDS011;142;50.652;12.216;2022-10-17T02:01:45;0.20;;;0.10;;
147;SDS011;142;50.652;12.216;2022-10-17T02:04:13;0.20;;;0.10;;
147;SDS011;142;50.652;12.216;2022-10-17T02:06:41;0.30;;;0.20;;
147;SDS011;142;50.652;12.216;2022-10-17T02:09:15;0.20;;;0.10;;
147;SDS011;142;50.652;12.216;2022-10-17T02:11:47;0.20;;;0.10;;
147;SDS011;142;50.652;12.216;2022-10-17T02:14:20;0.20;;;0.10;;
147;SDS011;142;50.652;12.216;2022-10-17T02:16:55;0.00;;;0.00;;
147;SDS011;142;50.652;12.216;2022-10-17T02:19:40;0.20;;;0.10;;
147;SDS011;142;50.652;12.216;2022-10-17T02:22:16;0.30;;;0.20;;
147;SDS011;142;50.652;12.216;2022-10-17T02:24:51;0.30;;;0.20;;
147;SDS011;142;50.652;12.216;2022-10-17T02:27:27;0.27;;;0.17;;
147;SDS011;142;50.652;12.216;2022-10-17T02:30:02;0.20;;;0.10;;
147;SDS011;142;50.652;12.216;2022-10-17T02:32:37;0.20;;;0.10;;
147;SDS011;142;50.652;12.216;2022-10-17T02:35:09;0.00;;;0.00;;
147;SDS011;142;50.652;12.216;2022-10-17T02:37:39;0.20;;;0.10;;
147;SDS011;142;50.652;12.216;2022-10-17T02:40:08;0.20;;;0.10;;
147;SDS011;142;50.652;12.216;2022-10-17T02:42:38;0.20;;;0.10;;
147;SDS011;142;50.652;12.216;2022-10-17T02:45:09;0.20;;;0.10;;
147;SDS011;142;50.652;12.216;2022-10-17T02:47:40;0.00;;;0.00;;
147;SDS011;142;50.652;12.216;2022-10-17T02:50:16;0.20;;;0.10;;
147;SDS011;142;50.652;12.216;2022-10-17T02:52:47;0.20;;;0.10;;
147;SDS011;142;50.652;12.216;2022-10-17T02:55:22;0.20;;;0.10;;
147;SDS011;142;50.652;12.216;2022-10-17T02:57:55;0.20;;;0.10;;
147;SDS011;142;50.652;12.216;2022-10-17T03:00:27;0.20;;;0.10;;
147;SDS011;142;50.652;12.216;2022-10-17T03:02:56;0.00;;;0.00;;
147;SDS011;142;50.652;12.216;2022-10-17T03:05:24;0.20;;;0.10;;
147;SDS011;142;50.652;12.216;2022-10-17T03:07:53;0.20;;;0.10;;
147;SDS011;142;50.652;12.216;2022-10-17T03:10:23;0.13;;;0.07;;
147;SDS011;142;50.652;12.216;2022-10-17T03:12:50;0.20;;;0.10;;
147;SDS011;142;50.652;12.216;2022-10-17T03:15:16;0.00;;;0.00;;
147;SDS011;142;50.652;12.216;2022-10-17T03:17:43;0.20;;;0.10;;
147;SDS011;142;50.652;12.216;2022-10-17T03:20:14;0.20;;;0.10;;
147;SDS011;142;50.652;12.216;2022-10-17T03:22:41;0.07;;;0.03;;
147;SDS011;142;50.652;12.216;2022-10-17T03:25:08;0.00;;;0.00;;
147;SDS011;142;50.652;12.216;2022-10-17T03:27:35;0.20;;;0.10;;
147;SDS011;142;50.652;12.216;2022-10-17T03:30:02;0.20;;;0.10;;
147;SDS011;142;50.652;12.216;2022-10-17T03:32:31;0.33;;;0.23;;
147;SDS011;142;50.652;12.216;2022-10-17T03:34:58;0.20;;;0.10;;
147;SDS011;142;50.652;12.216;2022-10-17T03:37:29;0.40;;;0.30;;
147;SDS011;142;50.652;12.216;2022-10-17T03:39:57;0.20;;;0.10;;
147;SDS011;142;50.652;12.216;2022-10-17T03:42:24;0.30;;;0.20;;
147;SDS011;142;50.652;12.216;2022-10-17T03:44:51;0.00;;;0.00;;
147;SDS011;142;50.652;12.216;2022-10-17T03:47:19;0.30;;;0.20;;
147;SDS011;142;50.652;12.216;2022-10-17T03:49:46;0.30;;;0.20;;
147;SDS011;142;50.652;12.216;2022-10-17T03:52:13;0.20;;;0.10;;
147;SDS011;142;50.652;12.216;2022-10-17T03:54:43;0.20;;;0.10;;
147;SDS011;142;50.652;12.216;2022-10-17T03:57:10;0.00;;;0.00;;
147;SDS011;142;50.652;12.216;2022-10-17T03:59:37;0.07;;;0.03;;
147;SDS011;142;50.652;12.216;2022-10-17T04:02:04;0.20;;;0.10;;
147;SDS011;142;50.652;12.216;2022-10-17T04:04:31;0.30;;;0.20;;
147;SDS011;142;50.652;12.216;2022-10-17T04:06:59;0.00;;;0.00;;
147;SDS011;142;50.652;12.216;2022-10-17T04:09:27;0.20;;;0.10;;
147;SDS011;142;50.652;12.216;2022-10-17T04:11:55;0.20;;;0.10;;
147;SDS011;142;50.652;12.216;2022-10-17T04:14:24;0.20;;;0.10;;
147;SDS011;142;50.652;12.216;2022-10-17T04:16:52;0.00;;;0.00;;
147;SDS011;142;50.652;12.216;2022-10-17T04:19:21;0.30;;;0.20;;
147;SDS011;142;50.652;12.216;2022-10-17T04:21:49;0.20;;;0.10;;
147;SDS011;142;50.652;12.216;2022-10-17T04:24:16;0.00;;;0.00;;
147;SDS011;142;50.652;12.216;2022-10-17T04:26:44;0.20;;;0.10;;
147;SDS011;142;50.652;12.216;2022-10-17T04:29:12;0.30;;;0.20;;
147;SDS011;142;50.652;12.216;2022-10-17T04:31:39;0.20;;;0.10;;
147;SDS011;142;50.652;12.216;2022-10-17T04:34:06;0.20;;;0.10;;
147;SDS011;142;50.652;12.216;2022-10-17T04:36:34;0.20;;;0.10;;
147;SDS011;142;50.652;12.216;2022-10-17T04:39:01;0.27;;;0.17;;
147;SDS011;142;50.652;12.216;2022-10-17T04:41:30;0.20;;;0.10;;
147;SDS011;142;50.652;12.216;2022-10-17T04:43:57;0.20;;;0.10;;
147;SDS011;142;50.652;12.216;2022-10-17T04:46:26;0.20;;;0.10;;
147;SDS011;142;50.652;12.216;2022-10-17T04:48:53;0.20;;;0.10;;
147;SDS011;142;50.652;12.216;2022-10-17T04:51:20;0.20;;;0.10;;
147;SDS011;142;50.652;12.216;2022-10-17T04:53:47;0.20;;;0.10;;
147;SDS011;142;50.652;12.216;2022-10-17T04:56:15;0.30;;;0.20;;
147;SDS011;142;50.652;12.216;2022-10-17T04:58:44;0.07;;;0.03;;
147;SDS011;142;50.652;12.216;2022-10-17T05:01:12;0.20;;;0.10;;
147;SDS011;142;50.652;12.216;2022-10-17T05:03:43;0.30;;;0.20;;
147;SDS011;142;50.652;12.216;2022-10-17T05:06:11;0.20;;;0.10;;
147;SDS011;142;50.652;12.216;2022-10-17T05:08:39;0.20;;;0.10;;
147;SDS011;142;50.652;12.216;2022-10-17T05:11:13;0.30;;;0.20;;
147;SDS011;142;50.652;12.216;2022-10-17T05:13:42;0.23;;;0.13;;
147;SDS011;142;50.652;12.216;2022-10-17T05:16:09;0.20;;;0.10;;
147;SDS011;142;50.652;12.216;2022-10-17T05:18:36;0.20;;;0.10;;
147;SDS011;142;50.652;12.216;2022-10-17T05:21:04;0.20;;;0.10;;
147;SDS011;142;50.652;12.216;2022-10-17T05:23:32;0.20;;;0.10;;
147;SDS011;142;50.652;12.216;2022-10-17T05:25:59;0.20;;;0.10;;
147;SDS011;142;50.652;12.216;2022-10-17T05:28:26;0.30;;;0.20;;
147;SDS011;142;50.652;12.216;2022-10-17T05:30:53;0.20;;;0.10;;
147;SDS011;142;50.652;12.216;2022-10-17T05:33:22;0.30;;;0.20;;
147;SDS011;142;50.652;12.216;2022-10-17T05:35:52;0.20;;;0.10;;
147;SDS011;142;50.652;12.216;2022-10-17T05:38:20;0.20;;;0.10;;
147;SDS011;142;50.652;12.216;2022-10-17T05:40:48;0.30;;;0.20;;
147;SDS011;142;50.652;12.216;2022-10-17T05:43:17;0.30;;;0.20;;
147;SDS011;142;50.652;12.216;2022-10-17T05:45:44;0.30;;;0.20;;
147;SDS011;142;50.652;12.216;2022-10-17T05:48:11;0.30;;;0.20;;
147;SDS011;142;50.652;12.216;2022-10-17T05:50:38;0.20;;;0.10;;
147;SDS011;142;50.652;12.216;2022-10-17T05:53:05;0.30;;;0.20;;
147;SDS011;142;50.652;12.216;2022-10-17T05:55:34;0.30;;;0.20;;
147;SDS011;142;50.652;12.216;2022-10-17T05:58:01;0.30;;;0.20;;
147;SDS011;142;50.652;12.216;2022-10-17T06:00:29;0.20;;;0.10;;
147;SDS011;142;50.652;12.216;2022-10-17T06:02:56;0.20;;;0.10;;
147;SDS011;142;50.652;12.216;2022-10-17T06:05:26;0.27;;;0.17;;
147;SDS011;142;50.652;12.216;2022-10-17T06:07:53;0.30;;;0.20;;
147;SDS011;142;50.652;12.216;2022-10-17T06:10:20;0.20;;;0.10;;
147;SDS011;142;50.652;12.216;2022-10-17T06:12:48;0.20;;;0.10;;
147;SDS011;142;50.652;12.216;2022-10-17T06:15:16;0.30;;;0.20;;
147;SDS011;142;50.652;12.216;2022-10-17T06:17:43;0.30;;;0.20;;
147;SDS011;142;50.652;12.216;2022-10-17T06:20:10;0.40;;;0.30;;
147;SDS011;142;50.652;12.216;2022-10-17T06:22:37;0.20;;;0.10;;
147;SDS011;142;50.652;12.216;2022-10-17T06:25:05;0.30;;;0.20;;
147;SDS011;142;50.652;12.216;2022-10-17T06:27:34;0.30;;;0.20;;
147;SDS011;142;50.652;12.216;2022-10-17T06:30:03;0.30;;;0.20;;
147;SDS011;142;50.652;12.216;2022-10-17T06:32:30;0.20;;;0.10;;
147;SDS011;142;50.652;12.216;2022-10-17T06:34:57;0.30;;;0.20;;
147;SDS011;142;50.652;12.216;2022-10-17T06:37:24;0.20;;;0.10;;
147;SDS011;142;50.652;12.216;2022-10-17T06:39:51;0.00;;;0.00;;
147;SDS011;142;50.652;12.216;2022-10-17T06:42:18;0.20;;;0.10;;
147;SDS011;142;50.652;12.216;2022-10-17T06:44:45;0.20;;;0.10;;
147;SDS011;142;50.652;12.216;2022-10-17T06:47:14;0.30;;;0.20;;
147;SDS011;142;50.652;12.216;2022-10-17T06:49:43;0.00;;;0.00;;
147;SDS011;142;50.652;12.216;2022-10-17T06:52:10;0.20;;;0.10;;
147;SDS011;142;50.652;12.216;2022-10-17T06:54:38;0.07;;;0.03;;
147;SDS011;142;50.652;12.216;2022-10-17T06:57:06;0.37;;;0.27;;
147;SDS011;142;50.652;12.216;2022-10-17T06:59:33;0.13;;;0.07;;
147;SDS011;142;50.652;12.216;2022-10-17T07:02:00;0.20;;;0.10;;
147;SDS011;142;50.652;12.216;2022-10-17T07:04:28;0.13;;;0.07;;
147;SDS011;142;50.652;12.216;2022-10-17T07:06:55;0.00;;;0.00;;
147;SDS011;142;50.652;12.216;2022-10-17T07:09:23;0.00;;;0.00;;
147;SDS011;142;50.652;12.216;2022-10-17T07:11:52;0.07;;;0.03;;
147;SDS011;142;50.652;12.216;2022-10-17T07:14:20;0.23;;;0.13;;
147;SDS011;142;50.652;12.216;2022-10-17T07:16:49;0.00;;;0.00;;
147;SDS011;142;50.652;12.216;2022-10-17T07:19:16;0.30;;;0.20;;
147;SDS011;142;50.652;12.216;2022-10-17T07:21:44;0.00;;;0.00;;
147;SDS011;142;50.652;12.216;2022-10-17T07:24:13;0.27;;;0.17;;
147;SDS011;142;50.652;12.216;2022-10-17T07:26:40;0.07;;;0.03;;
147;SDS011;142;50.652;12.216;2022-10-17T07:29:08;0.20;;;0.10;;
147;SDS011;142;50.652;12.216;2022-10-17T07:31:35;0.00;;;0.00;;
147;SDS011;142;50.652;12.216;2022-10-17T07:34:02;0.20;;;0.10;;
147;SDS011;142;50.652;12.216;2022-10-17T07:36:30;0.20;;;0.10;;
147;SDS011;142;50.652;12.216;2022-10-17T07:39:00;0.00;;;0.00;;
147;SDS011;142;50.652;12.216;2022-10-17T07:41:27;0.13;;;0.07;;
147;SDS011;142;50.652;12.216;2022-10-17T07:43:54;0.00;;;0.00;;
147;SDS011;142;50.652;12.216;2022-10-17T07:46:21;0.00;;;0.00;;
147;SDS011;142;50.652;12.216;2022-10-17T07:48:48;0.20;;;0.10;;
147;SDS011;142;50.652;12.216;2022-10-17T07:51:15;0.20;;;0.10;;
147;SDS011;142;50.652;12.216;2022-10-17T07:53:44;0.20;;;0.10;;
147;SDS011;142;50.652;12.216;2022-10-17T07:56:12;0.00;;;0.00;;
147;SDS011;142;50.652;12.216;2022-10-17T07:58:39;0.00;;;0.00;;
147;SDS011;142;50.652;12.216;2022-10-17T08:01:07;0.00;;;0.00;;
147;SDS011;142;50.652;12.216;2022-10-17T08:03:38;0.00;;;0.00;;
147;SDS011;142;50.652;12.216;2022-10-17T08:06:06;0.00;;;0.00;;
147;SDS011;142;50.652;12.216;2022-10-17T08:08:33;0.00;;;0.00;;
147;SDS011;142;50.652;12.216;2022-10-17T08:11:00;0.00;;;0.00;;
147;SDS011;142;50.652;12.216;2022-10-17T08:13:30;0.00;;;0.00;;
147;SDS011;142;50.652;12.216;2022-10-17T08:15:58;0.00;;;0.00;;
147;SDS011;142;50.652;12.216;2022-10-17T08:18:26;0.20;;;0.10;;
147;SDS011;142;50.652;12.216;2022-10-17T08:20:53;0.00;;;0.00;;
147;SDS011;142;50.652;12.216;2022-10-17T08:23:20;0.00;;;0.00;;
147;SDS011;142;50.652;12.216;2022-10-17T08:25:47;0.00;;;0.00;;
147;SDS011;142;50.652;12.216;2022-10-17T08:28:14;0.00;;;0.00;;
147;SDS011;142;50.652;12.216;2022-10-17T08:30:43;0.00;;;0.00;;
147;SDS011;142;50.652;12.216;2022-10-17T08:33:11;0.00;;;0.00;;
147;SDS011;142;50.652;12.216;2022-10-17T08:35:38;0.00;;;0.00;;
147;SDS011;142;50.652;12.216;2022-10-17T08:38:07;0.00;;;0.00;;
147;SDS011;142;50.652;12.216;2022-10-17T08:40:34;0.00;;;0.00;;
147;SDS011;142;50.652;12.216;2022-10-17T08:43:10;0.00;;;0.00;;
147;SDS011;142;50.652;12.216;2022-10-17T08:45:50;0.00;;;0.00;;
147;SDS011;142;50.652;12.216;2022-10-17T08:48:22;0.00;;;0.00;;
147;SDS011;142;50.652;12.216;2022-10-17T08:50:52;0.00;;;0.00;;
147;SDS011;142;50.652;12.216;2022-10-17T08:53:23;0.00;;;0.00;;
147;SDS011;142;50.652;12.216;2022-10-17T08:55:55;0.00;;;0.00;;
147;SDS011;142;50.652;12.216;2022-10-17T08:58:23;0.00;;;0.00;;
147;SDS011;142;50.652;12.216;2022-10-17T09:00:59;0.00;;;0.00;;
147;SDS011;142;50.652;12.216;2022-10-17T09:03:36;0.20;;;0.10;;
147;SDS011;142;50.652;12.216;2022-10-17T09:06:13;0.00;;;0.00;;
147;SDS011;142;50.652;12.216;2022-10-17T09:08:46;0.00;;;0.00;;
147;SDS011;142;50.652;12.216;2022-10-17T09:11:24;0.00;;;0.00;;
147;SDS011;142;50.652;12.216;2022-10-17T09:14:06;0.07;;;0.03;;
147;SDS011;142;50.652;12.216;2022-10-17T09:16:50;0.00;;;0.00;;
147;SDS011;142;50.652;12.216;2022-10-17T09:19:29;0.00;;;0.00;;
147;SDS011;142;50.652;12.216;2022-10-17T09:22:00;0.00;;;0.00;;
147;SDS011;142;50.652;12.216;2022-10-17T09:24:36;0.00;;;0.00;;
147;SDS011;142;50.652;12.216;2022-10-17T09:27:10;0.20;;;0.10;;
147;SDS011;142;50.652;12.216;2022-10-17T09:29:45;0.00;;;0.00;;
147;SDS011;142;50.652;12.216;2022-10-17T09:32:18;0.00;;;0.00;;
147;SDS011;142;50.652;12.216;2022-10-17T09:34:50;0.00;;;0.00;;
147;SDS011;142;50.652;12.216;2022-10-17T09:37:17;0.00;;;0.00;;
147;SDS011;142;50.652;12.216;2022-10-17T09:39:55;0.00;;;0.00;;
147;SDS011;142;50.652;12.216;2022-10-17T09:42:23;0.00;;;0.00;;
147;SDS011;142;50.652;12.216;2022-10-17T09:44:54;0.00;;;0.00;;
147;SDS011;142;50.652;12.216;2022-10-17T09:47:30;0.00;;;0.00;;
147;SDS011;142;50.652;12.216;2022-10-17T09:50:07;0.00;;;0.00;;
147;SDS011;142;50.652;12.216;2022-10-17T09:52:40;0.00;;;0.00;;
147;SDS011;142;50.652;12.216;2022-10-17T09:55:14;0.00;;;0.00;;
147;SDS011;142;50.652;12.216;2022-10-17T09:57:52;0.00;;;0.00;;
147;SDS011;142;50.652;12.216;2022-10-17T10:00:21;0.00;;;0.00;;
147;SDS011;142;50.652;12.216;2022-10-17T10:02:51;0.00;;;0.00;;
147;SDS011;142;50.652;12.216;2022-10-17T10:05:34;0.00;;;0.00;;
147;SDS011;142;50.652;12.216;2022-10-17T10:08:02;0.00;;;0.00;;
147;SDS011;142;50.652;12.216;2022-10-17T10:10:31;0.00;;;0.00;;
147;SDS011;142;50.652;12.216;2022-10-17T10:13:03;0.20;;;0.10;;
147;SDS011;142;50.652;12.216;2022-10-17T10:15:34;0.00;;;0.00;;
147;SDS011;142;50.652;12.216;2022-10-17T10:21:04;0.00;;;0.00;;
147;SDS011;142;50.652;12.216;2022-10-17T10:23:34;0.00;;;0.00;;
147;SDS011;142;50.652;12.216;2022-10-17T10:26:16;0.00;;;0.00;;
147;SDS011;142;50.652;12.216;2022-10-17T10:28:53;0.00;;;0.00;;
147;SDS011;142;50.652;12.216;2022-10-17T10:31:30;0.00;;;0.00;;
147;SDS011;142;50.652;12.216;2022-10-17T10:34:00;0.00;;;0.00;;
147;SDS011;142;50.652;12.216;2022-10-17T10:36:44;0.00;;;0.00;;
147;SDS011;142;50.652;12.216;2022-10-17T10:39:28;0.00;;;0.00;;
147;SDS011;142;50.652;12.216;2022-10-17T10:41:59;0.00;;;0.00;;
147;SDS011;142;50.652;12.216;2022-10-17T10:44:28;0.00;;;0.00;;
147;SDS011;142;50.652;12.216;2022-10-17T10:47:16;0.00;;;0.00;;
147;SDS011;142;50.652;12.216;2022-10-17T10:49:45;0.00;;;0.00;;
147;SDS011;142;50.652;12.216;2022-10-17T10:52:23;0.00;;;0.00;;
147;SDS011;142;50.652;12.216;2022-10-17T10:54:58;0.00;;;0.00;;
147;SDS011;142;50.652;12.216;2022-10-17T10:57:31;0.00;;;0.00;;
147;SDS011;142;50.652;12.216;2022-10-17T11:00:03;0.00;;;0.00;;
147;SDS011;142;50.652;12.216;2022-10-17T11:02:39;0.00;;;0.00;;
147;SDS011;142;50.652;12.216;2022-10-17T11:05:11;0.00;;;0.00;;
147;SDS011;142;50.652;12.216;2022-10-17T11:07:46;0.00;;;0.00;;
147;SDS011;142;50.652;12.216;2022-10-17T11:10:19;0.20;;;0.10;;
147;SDS011;142;50.652;12.216;2022-10-17T11:12:51;0.00;;;0.00;;
147;SDS011;142;50.652;12.216;2022-10-17T11:15:23;0.00;;;0.00;;
147;SDS011;142;50.652;12.216;2022-10-17T11:17:56;0.00;;;0.00;;
147;SDS011;142;50.652;12.216;2022-10-17T11:20:28;0.00;;;0.00;;
147;SDS011;142;50.652;12.216;2022-10-17T11:23:08;0.00;;;0.00;;
147;SDS011;142;50.652;12.216;2022-10-17T11:25:44;0.00;;;0.00;;
147;SDS011;142;50.652;12.216;2022-10-17T11:28:12;0.00;;;0.00;;
147;SDS011;142;50.652;12.216;2022-10-17T11:30:43;0.00;;;0.00;;
147;SDS011;142;50.652;12.216;2022-10-17T11:33:17;0.00;;;0.00;;
147;SDS011;142;50.652;12.216;2022-10-17T11:35:51;0.00;;;0.00;;
147;SDS011;142;50.652;12.216;2022-10-17T11:38:24;0.00;;;0.00;;
147;SDS011;142;50.652;12.216;2022-10-17T11:40:58;0.00;;;0.00;;
147;SDS011;142;50.652;12.216;2022-10-17T11:43:27;0.00;;;0.00;;
147;SDS011;142;50.652;12.216;2022-10-17T11:46:01;0.00;;;0.00;;
147;SDS011;142;50.652;12.216;2022-10-17T11:48:33;0.00;;;0.00;;
147;SDS011;142;50.652;12.216;2022-10-17T11:51:07;0.00;;;0.00;;
147;SDS011;142;50.652;12.216;2022-10-17T11:53:43;0.00;;;0.00;;
147;SDS011;142;50.652;12.216;2022-10-17T11:56:13;0.00;;;0.00;;
147;SDS011;142;50.652;12.216;2022-10-17T11:58:46;0.00;;;0.00;;
147;SDS011;142;50.652;12.216;2022-10-17T12:01:20;0.00;;;0.00;;
147;SDS011;142;50.652;12.216;2022-10-17T12:03:59;0.00;;;0.00;;
147;SDS011;142;50.652;12.216;2022-10-17T12:06:46;0.00;;;0.00;;
147;SDS011;142;50.652;12.216;2022-10-17T12:09:24;0.00;;;0.00;;
147;SDS011;142;50.652;12.216;2022-10-17T12:11:57;0.00;;;0.00;;
147;SDS011;142;50.652;12.216;2022-10-17T12:14:36;0.00;;;0.00;;
147;SDS011;142;50.652;12.216;2022-10-17T12:17:05;0.00;;;0.00;;
147;SDS011;142;50.652;12.216;2022-10-17T12:19:47;0.00;;;0.00;;
147;SDS011;142;50.652;12.216;2022-10-17T12:22:19;0.00;;;0.00;;
147;SDS011;142;50.652;12.216;2022-10-17T12:24:57;0.00;;;0.00;;
147;SDS011;142;50.652;12.216;2022-10-17T12:27:33;0.00;;;0.00;;
147;SDS011;142;50.652;12.216;2022-10-17T12:30:14;0.00;;;0.00;;
147;SDS011;142;50.652;12.216;2022-10-17T12:32:53;0.00;;;0.00;;
147;SDS011;142;50.652;12.216;2022-10-17T12:35:26;0.00;;;0.00;;
147;SDS011;142;50.652;12.216;2022-10-17T12:38:14;0.00;;;0.00;;
147;SDS011;142;50.652;12.216;2022-10-17T12:40:53;0.00;;;0.00;;
147;SDS011;142;50.652;12.216;2022-10-17T12:43:34;0.00;;;0.00;;
147;SDS011;142;50.652;12.216;2022-10-17T12:46:08;0.00;;;0.00;;
147;SDS011;142;50.652;12.216;2022-10-17T12:51:38;0.00;;;0.00;;
147;SDS011;142;50.652;12.216;2022-10-17T12:54:55;0.00;;;0.00;;
147;SDS011;142;50.652;12.216;2022-10-17T12:57:33;0.00;;;0.00;;
147;SDS011;142;50.652;12.216;2022-10-17T13:00:05;0.00;;;0.00;;
147;SDS011;142;50.652;12.216;2022-10-17T13:02:42;0.00;;;0.00;;
147;SDS011;142;50.652;12.216;2022-10-17T13:05:13;0.00;;;0.00;;
147;SDS011;142;50.652;12.216;2022-10-17T13:07:43;0.00;;;0.00;;
147;SDS011;142;50.652;12.216;2022-10-17T13:10:18;0.00;;;0.00;;
147;SDS011;142;50.652;12.216;2022-10-17T13:12:49;0.00;;;0.00;;
147;SDS011;142;50.652;12.216;2022-10-17T13:15:18;0.00;;;0.00;;
147;SDS011;142;50.652;12.216;2022-10-17T13:17:54;0.00;;;0.00;;
147;SDS011;142;50.652;12.216;2022-10-17T13:20:23;0.00;;;0.00;;
147;SDS011;142;50.652;12.216;2022-10-17T13:22:53;0.00;;;0.00;;
147;SDS011;142;50.652;12.216;2022-10-17T13:25:21;0.20;;;0.10;;
147;SDS011;142;50.652;12.216;2022-10-17T13:27:50;0.00;;;0.00;;
147;SDS011;142;50.652;12.216;2022-10-17T13:30:30;0.00;;;0.00;;
147;SDS011;142;50.652;12.216;2022-10-17T13:32:58;0.00;;;0.00;;
147;SDS011;142;50.652;12.216;2022-10-17T13:35:26;0.00;;;0.00;;
147;SDS011;142;50.652;12.216;2022-10-17T13:37:55;0.00;;;0.00;;
147;SDS011;142;50.652;12.216;2022-10-17T13:40:25;0.00;;;0.00;;
147;SDS011;142;50.652;12.216;2022-10-17T13:42:55;0.00;;;0.00;;
147;SDS011;142;50.652;12.216;2022-10-17T13:45:27;0.00;;;0.00;;
147;SDS011;142;50.652;12.216;2022-10-17T13:47:56;0.20;;;0.10;;
147;SDS011;142;50.652;12.216;2022-10-17T13:50:29;0.00;;;0.00;;
147;SDS011;142;50.652;12.216;2022-10-17T13:53:05;0.00;;;0.00;;
147;SDS011;142;50.652;12.216;2022-10-17T13:55:35;0.00;;;0.00;;
147;SDS011;142;50.652;12.216;2022-10-17T13:58:12;0.00;;;0.00;;
147;SDS011;142;50.652;12.216;2022-10-17T14:00:42;0.00;;;0.00;;
147;SDS011;142;50.652;12.216;2022-10-17T14:03:09;0.00;;;0.00;;
147;SDS011;142;50.652;12.216;2022-10-17T14:08:34;0.00;;;0.00;;
147;SDS011;142;50.652;12.216;2022-10-17T14:11:02;0.00;;;0.00;;
147;SDS011;142;50.652;12.216;2022-10-17T14:13:46;0.00;;;0.00;;
147;SDS011;142;50.652;12.216;2022-10-17T14:16:15;0.00;;;0.00;;
147;SDS011;142;50.652;12.216;2022-10-17T14:18:44;0.00;;;0.00;;
147;SDS011;142;50.652;12.216;2022-10-17T14:21:17;0.00;;;0.00;;
147;SDS011;142;50.652;12.216;2022-10-17T14:23:46;0.00;;;0.00;;
147;SDS011;142;50.652;12.216;2022-10-17T14:26:14;0.00;;;0.00;;
147;SDS011;142;50.652;12.216;2022-10-17T14:28:46;0.00;;;0.00;;
147;SDS011;142;50.652;12.216;2022-10-17T14:31:22;0.00;;;0.00;;
147;SDS011;142;50.652;12.216;2022-10-17T14:33:52;0.00;;;0.00;;
147;SDS011;142;50.652;12.216;2022-10-17T14:36:19;0.00;;;0.00;;
147;SDS011;142;50.652;12.216;2022-10-17T14:38:55;0.00;;;0.00;;
147;SDS011;142;50.652;12.216;2022-10-17T14:41:23;0.00;;;0.00;;
147;SDS011;142;50.652;12.216;2022-10-17T14:43:55;0.00;;;0.00;;
147;SDS011;142;50.652;12.216;2022-10-17T14:46:24;0.20;;;0.10;;
147;SDS011;142;50.652;12.216;2022-10-17T14:48:52;0.00;;;0.00;;
147;SDS011;142;50.652;12.216;2022-10-17T14:51:22;0.00;;;0.00;;
147;SDS011;142;50.652;12.216;2022-10-17T14:53:59;0.00;;;0.00;;
147;SDS011;142;50.652;12.216;2022-10-17T14:56:33;0.00;;;0.00;;
147;SDS011;142;50.652;12.216;2022-10-17T14:59:07;0.00;;;0.00;;
147;SDS011;142;50.652;12.216;2022-10-17T15:01:35;0.00;;;0.00;;
147;SDS011;142;50.652;12.216;2022-10-17T15:04:02;0.00;;;0.00;;
147;SDS011;142;50.652;12.216;2022-10-17T15:06:30;0.00;;;0.00;;
147;SDS011;142;50.652;12.216;2022-10-17T15:08:59;0.00;;;0.00;;
147;SDS011;142;50.652;12.216;2022-10-17T15:11:28;0.00;;;0.00;;
147;SDS011;142;50.652;12.216;2022-10-17T15:13:55;0.00;;;0.00;;
147;SDS011;142;50.652;12.216;2022-10-17T15:16:24;0.07;;;0.03;;
147;SDS011;142;50.652;12.216;2022-10-17T15:18:53;0.00;;;0.00;;
147;SDS011;142;50.652;12.216;2022-10-17T15:21:20;0.00;;;0.00;;
147;SDS011;142;50.652;12.216;2022-10-17T15:23:48;0.00;;;0.00;;
147;SDS011;142;50.652;12.216;2022-10-17T15:26:17;0.00;;;0.00;;
147;SDS011;142;50.652;12.216;2022-10-17T15:28:45;0.00;;;0.00;;
147;SDS011;142;50.652;12.216;2022-10-17T15:31:14;0.00;;;0.00;;
147;SDS011;142;50.652;12.216;2022-10-17T15:33:44;0.00;;;0.00;;
147;SDS011;142;50.652;12.216;2022-10-17T15:36:20;0.00;;;0.00;;
147;SDS011;142;50.652;12.216;2022-10-17T15:38:50;0.00;;;0.00;;
147;SDS011;142;50.652;12.216;2022-10-17T15:41:19;0.00;;;0.00;;
147;SDS011;142;50.652;12.216;2022-10-17T15:43:47;0.00;;;0.00;;
147;SDS011;142;50.652;12.216;2022-10-17T15:46:16;0.00;;;0.00;;
147;SDS011;142;50.652;12.216;2022-10-17T15:48:46;0.20;;;0.10;;
147;SDS011;142;50.652;12.216;2022-10-17T15:51:13;0.00;;;0.00;;
147;SDS011;142;50.652;12.216;2022-10-17T15:53:41;0.07;;;0.03;;
147;SDS011;142;50.652;12.216;2022-10-17T15:56:10;0.00;;;0.00;;
147;SDS011;142;50.652;12.216;2022-10-17T15:58:46;0.00;;;0.00;;
147;SDS011;142;50.652;12.216;2022-10-17T16:01:17;0.00;;;0.00;;
147;SDS011;142;50.652;12.216;2022-10-17T16:03:48;0.00;;;0.00;;
147;SDS011;142;50.652;12.216;2022-10-17T16:06:16;0.00;;;0.00;;